Track Цветкова Олеся

Time Latitude Longitude Accuracy (66% radius in meters) Altitude (meters) Speed (km/hour) Bearing (degrees) Battery (%) GPS flag
14:01:16 59.876430 29.925541 9 30 0 0 76 1 delete
14:01:04 59.876429 29.925542 6 30 0 0 76 1 delete
14:00:53 59.876418 29.925588 10 31 0 0 76 1 delete
14:00:42 59.876443 29.925631 7 31 0.75 34.799999237061 76 1 delete
14:00:39 59.876439 29.925612 5 32 1 91.800003051758 76 1 delete
14:00:34 59.876467 29.925429 4 35 2.5 46.099998474121 76 1 delete
14:00:31 59.876415 29.925241 6 33 2.5 40.299999237061 76 1 delete
14:00:28 59.876346 29.925081 5 30 2.5 38.099998474121 76 1 delete
14:00:24 59.876257 29.924924 5 28 2.5 27.200000762939 76 1 delete
14:00:20 59.876176 29.924814 4 28 1.25 20.5 76 1 delete
14:00:19 59.876161 29.924798 4 28 1.25 21.299999237061 76 1 delete
14:00:13 59.876077 29.924712 6 26 1.25 329.39999389648 76 1 delete
14:00:09 59.876017 29.924728 6 29 1.5 348.70001220703 76 1 delete
14:00:07 59.875984 29.924711 6 29 1.5 18.10000038147 76 1 delete
14:00:02 59.875896 29.924631 5 30 1.5 3.2999999523163 76 1 delete
13:59:59 59.875836 29.924608 6 30 1.25 354.89999389648 76 1 delete
13:59:56 59.875794 29.924608 7 33 1.75 359.20001220703 76 1 delete
13:59:52 59.875703 29.924569 5 35 2 23.200000762939 76 1 delete
13:59:48 59.875643 29.924519 3 37 0 0 76 1 delete
13:59:46 59.875614 29.924486 4 36 2 21.60000038147 76 1 delete
13:59:42 59.875524 29.924402 4 32 2 23.60000038147 76 1 delete
13:59:37 59.875433 29.924318 4 31 1.25 22.700000762939 76 1 delete
13:59:31 59.875345 29.924252 3 31 0.75 18.39999961853 76 1 delete
13:59:26 59.875315 29.924234 3 32 0.5 18.39999961853 76 1 delete
13:59:22 59.875253 29.924192 3 31 2.75 27.799999237061 76 1 delete
13:59:18 59.875152 29.924106 3 29 2.75 30.200000762939 76 1 delete
13:59:15 59.875068 29.924039 4 29 3 23.10000038147 76 1 delete
13:59:12 59.874982 29.923961 4 29 3 26.799999237061 76 1 delete
13:59:09 59.874900 29.923865 4 28 3 22.700000762939 76 1 delete
13:59:06 59.874813 29.923798 4 28 3 18.700000762939 76 1 delete
13:59:04 59.874744 29.923749 4 30 1.75 21.700000762939 76 1 delete
13:59:02 59.874703 29.923720 3 30 1.25 27 76 1 delete
13:58:53 59.874611 29.923626 3 31 2.25 90.199996948242 76 1 delete
13:58:52 59.874613 29.923583 3 31 2.5 100.59999847412 76 1 delete
13:58:49 59.874639 29.923440 3 32 2 71 76 1 delete
13:58:44 59.874581 29.923300 3 33 3.5 13.5 76 1 delete
13:58:42 59.874516 29.923268 3 32 3 6.9000000953674 76 1 delete
13:58:34 59.874487 29.923249 3 33 1 358 76 1 delete
13:58:31 59.874454 29.923252 3 35 1.75 10.10000038147 76 1 delete
13:58:28 59.874393 29.923232 3 34 2.75 17 76 1 delete
13:58:24 59.874287 29.923183 3 35 2 25 76 1 delete
13:58:20 59.874224 29.923125 3 35 1.75 21 76 1 delete
13:58:18 59.874196 29.923102 3 35 1.75 23.89999961853 76 1 delete
13:58:12 59.874105 29.923038 3 34 1.75 27.799999237061 76 1 delete
13:58:09 59.874064 29.922973 3 35 1.75 71.800003051758 76 1 delete
13:58:06 59.874063 29.922865 3 34 1.75 83.400001525879 76 1 delete
13:58:01 59.874045 29.922667 4 35 3.25 50.5 76 1 delete
13:57:58 59.873975 29.922487 4 33 3.5 52.200000762939 76 1 delete
13:57:55 59.873905 29.922294 4 31 3.25 57.299999237061 76 1 delete
13:57:46 59.873849 29.922121 4 32 0 0 76 1 delete